Time;durP1;ratioP1;P1;durP2;ratioP2;P2;SDS_P1;SDS_P2;PMS_P1;PMS_P2;Temp;Humidity;BMP_temperature;BMP_pressure;BME280_temperature;BME280_humidity;BME280_pressure;Samples;Min_cycle;Max_cycle;Signal;HPM_P1;HPM_P2
2022/09/17 00:01:23;;;;;;;7.05;4.72;;;;;;;10.17;100.00;98060.51;4277818;82;21020;-81
2022/09/17 00:07:25;;;;;;;10.30;5.35;;;;;;;10.10;100.00;98061.11;4275774;82;21032;-82
2022/09/17 00:13:26;;;;;;;7.03;4.87;;;;;;;10.03;100.00;98048.78;4275020;82;21005;-81
2022/09/17 00:19:28;;;;;;;6.67;4.47;;;;;;;9.98;100.00;98054.64;4281449;83;21032;-82
2022/09/17 00:25:30;;;;;;;6.40;4.12;;;;;;;9.95;100.00;98048.02;4283911;82;21499;-81
2022/09/17 00:31:33;;;;;;;8.55;5.50;;;;;;;9.95;100.00;98041.18;4271536;82;21080;-81
2022/09/17 00:37:34;;;;;;;6.28;4.12;;;;;;;10.02;100.00;98060.90;4270587;82;20985;-81
2022/09/17 00:43:44;;;;;;;6.47;4.40;;;;;;;9.90;100.00;98047.65;4273483;82;21072;-81
2022/09/17 00:49:49;;;;;;;7.28;4.87;;;;;;;9.85;100.00;98059.73;4278024;82;21843;-81
2022/09/17 00:56:08;;;;;;;6.55;4.80;;;;;;;9.86;100.00;98059.95;4247760;82;21553;-81
2022/09/17 01:02:10;;;;;;;4.83;4.22;;;;;;;9.83;100.00;98055.27;4251783;82;21494;-81
2022/09/17 01:08:47;;;;;;;6.22;4.33;;;;;;;9.77;100.00;98046.48;4247903;82;21032;-81
2022/09/17 01:15:09;;;;;;;5.53;4.15;;;;;;;9.70;100.00;98040.43;4232778;82;21048;-81
2022/09/17 01:21:49;;;;;;;9.45;4.22;;;;;;;9.61;100.00;98037.32;4247121;82;21558;-81
2022/09/17 01:28:16;;;;;;;6.55;4.37;;;;;;;9.53;100.00;98043.38;4237371;82;21556;-83
2022/09/17 01:34:42;;;;;;;10.55;5.00;;;;;;;9.37;100.00;98042.18;4239759;82;22047;-82
2022/09/17 01:41:07;;;;;;;7.90;4.17;;;;;;;9.23;100.00;98042.17;4198248;83;21043;-81
2022/09/17 01:47:15;;;;;;;6.03;3.75;;;;;;;9.22;100.00;98049.57;4288725;82;20992;-81
2022/09/17 01:53:47;;;;;;;6.97;3.52;;;;;;;9.20;100.00;98061.48;4259594;81;21852;-81
2022/09/17 02:00:08;;;;;;;10.30;4.60;;;;;;;9.10;100.00;98059.51;4235169;83;20968;-81
2022/09/17 02:06:22;;;;;;;6.03;4.75;;;;;;;8.96;100.00;98042.31;4275293;81;20964;-81
2022/09/17 02:12:32;;;;;;;;;;;;;;;9.05;100.00;98050.33;4289486;81;21031;-81
2022/09/17 02:18:51;;;;;;;10.18;4.87;;;;;;;8.93;100.00;98048.55;4282310;81;20163;-81
2022/09/17 02:25:18;;;;;;;5.55;3.60;;;;;;;8.72;100.00;98053.35;4306692;81;21043;-81
2022/09/17 02:31:29;;;;;;;;;;;;;;;8.60;100.00;98051.55;4290387;81;21453;-81
2022/09/17 02:38:05;;;;;;;8.18;4.55;;;;;;;8.49;100.00;98061.06;4240051;81;20274;-81
2022/09/17 02:45:17;;;;;;;10.88;5.17;;;;;;;8.69;100.00;98062.31;4283742;81;21123;-81
2022/09/17 02:52:03;;;;;;;7.75;4.90;;;;;;;8.67;100.00;98059.78;4298314;81;21034;-81
2022/09/17 03:05:00;;;;;;;7.90;5.17;;;;;;;8.34;100.00;98039.00;4154534;83;21046;-81
2022/09/17 03:11:36;;;;;;;8.73;5.55;;;;;;;8.27;100.00;98030.01;4176642;85;21034;-81
2022/09/17 03:17:54;;;;;;;8.40;5.28;;;;;;;8.29;100.00;98017.55;4218481;83;21088;-81
2022/09/17 03:24:24;;;;;;;9.85;4.90;;;;;;;8.19;100.00;98012.02;4219376;83;21019;-81
2022/09/17 03:30:49;;;;;;;7.15;4.97;;;;;;;8.08;100.00;98012.55;4219982;83;20984;-81
2022/09/17 03:37:14;;;;;;;6.35;4.87;;;;;;;7.76;100.00;98015.88;4246090;83;21494;-81
2022/09/17 03:43:40;;;;;;;11.37;5.03;;;;;;;7.61;100.00;98015.55;4219367;84;21063;-81
2022/09/17 03:50:01;;;;;;;8.10;5.97;;;;;;;7.64;100.00;98010.72;4215187;84;21064;-81
2022/09/17 03:56:25;;;;;;;9.85;5.10;;;;;;;7.71;100.00;98006.69;4220200;83;21024;-81
2022/09/17 04:02:44;;;;;;;9.25;5.58;;;;;;;7.64;100.00;98003.14;3994546;87;21038;-81
2022/09/17 04:09:24;;;;;;;8.48;6.00;;;;;;;7.58;100.00;97998.61;4162862;83;21120;-81
2022/09/17 04:15:43;;;;;;;6.87;5.33;;;;;;;7.69;100.00;97994.02;4151440;84;21052;-81
2022/09/17 04:22:08;;;;;;;9.75;5.20;;;;;;;7.68;100.00;97989.74;4143651;84;21489;-81
2022/09/17 04:28:53;;;;;;;8.90;5.45;;;;;;;7.51;100.00;97987.69;4166749;84;20991;-80
2022/09/17 04:35:26;;;;;;;8.63;5.78;;;;;;;7.46;100.00;97985.88;4292799;81;20957;-81
2022/09/17 04:41:44;;;;;;;6.85;4.90;;;;;;;7.55;100.00;97998.58;4293984;81;20961;-81
2022/09/17 04:47:55;;;;;;;9.10;6.12;;;;;;;7.42;100.00;98013.08;4288586;81;21110;-81
2022/09/17 04:54:07;;;;;;;9.95;5.62;;;;;;;7.38;100.00;98010.92;4309717;81;21020;-81
2022/09/17 05:00:16;;;;;;;10.68;5.75;;;;;;;7.32;100.00;98002.91;4252499;82;21528;-81
2022/09/17 05:06:43;;;;;;;13.28;7.58;;;;;;;7.35;100.00;97994.55;4254611;82;21080;-81
2022/09/17 05:12:57;;;;;;;19.15;11.10;;;;;;;7.33;100.00;97988.13;4253077;82;20999;-81
2022/09/17 05:19:22;;;;;;;21.05;10.55;;;;;;;7.42;100.00;97983.73;4305459;82;20993;-81
2022/09/17 05:25:51;;;;;;;15.78;10.38;;;;;;;7.65;100.00;98006.06;4280555;82;21060;-81
2022/09/17 05:32:03;;;;;;;14.40;8.15;;;;;;;7.94;100.00;97999.61;4171594;84;20997;-81
2022/09/17 05:38:55;;;;;;;12.85;8.13;;;;;;;8.13;100.00;98003.41;4294514;81;21058;-81
2022/09/17 05:45:22;;;;;;;16.10;10.58;;;;;;;8.27;100.00;97989.87;4298846;81;21547;-81
2022/09/17 05:52:07;;;;;;;14.95;9.75;;;;;;;8.35;100.00;97985.25;4302618;81;21043;-81
2022/09/17 05:58:50;;;;;;;17.02;10.18;;;;;;;8.40;100.00;98001.22;4368905;79;21088;-81
2022/09/17 06:05:23;;;;;;;13.95;8.18;;;;;;;8.61;100.00;97989.03;4375596;80;22053;-81
2022/09/17 06:12:00;;;;;;;8.70;6.03;;;;;;;8.90;100.00;98011.11;4348769;79;21118;-81
2022/09/17 06:18:27;;;;;;;9.00;6.10;;;;;;;9.20;100.00;98001.42;4260423;82;22038;-81
2022/09/17 06:32:26;;;;;;;9.53;5.40;;;;;;;9.76;100.00;97997.86;3971205;88;21086;-81
2022/09/17 06:39:18;;;;;;;8.83;5.90;;;;;;;10.06;100.00;97992.73;3857132;90;21160;-82
2022/09/17 06:45:42;;;;;;;9.03;5.10;;;;;;;10.33;100.00;98006.16;3816888;93;21543;-81
2022/09/17 06:52:19;;;;;;;9.15;5.25;;;;;;;10.56;100.00;97994.70;3769782;93;21164;-81
2022/09/17 07:41:21;;;;;;;9.08;4.67;;;;;;;11.94;100.00;98019.94;4013750;88;21033;-82
2022/09/17 07:47:46;;;;;;;7.77;4.20;;;;;;;12.26;100.00;98049.97;4130973;86;21124;-82
2022/09/17 08:00:43;;;;;;;3.40;2.60;;;;;;;12.49;100.00;98049.34;4166030;84;21077;-82
2022/09/17 08:06:47;;;;;;;5.45;2.65;;;;;;;12.62;100.00;98036.03;4199004;84;21010;-81
2022/09/17 08:12:49;;;;;;;4.22;2.37;;;;;;;12.73;100.00;98022.78;4136121;84;21090;-82
2022/09/17 08:18:56;;;;;;;3.62;2.20;;;;;;;12.74;100.00;98016.88;4220167;84;21002;-82
2022/09/17 08:24:59;;;;;;;3.80;2.17;;;;;;;12.82;100.00;98025.79;4135537;84;21011;-82
2022/09/17 08:31:07;;;;;;;8.75;2.08;;;;;;;12.92;100.00;98033.87;4240527;84;20966;-82
2022/09/17 08:37:10;;;;;;;3.62;2.12;;;;;;;13.13;100.00;98023.22;4161592;84;21081;-83
2022/09/17 08:43:19;;;;;;;3.15;1.80;;;;;;;13.42;100.00;98036.74;4185014;84;21101;-82
2022/09/17 08:49:49;;;;;;;3.70;1.62;;;;;;;13.57;99.50;98026.48;4176303;84;21066;-82
2022/09/17 08:56:05;;;;;;;3.12;1.52;;;;;;;13.74;97.59;98035.63;4217695;83;21047;-83
2022/09/17 09:02:24;;;;;;;2.72;1.67;;;;;;;14.00;96.67;98038.92;4173038;83;21089;-83
2022/09/17 09:08:37;;;;;;;3.40;1.82;;;;;;;14.18;95.71;98022.85;4173695;83;20991;-82
2022/09/17 09:14:54;;;;;;;5.03;1.72;;;;;;;14.36;95.27;98012.91;4186802;84;21095;-82
2022/09/17 09:21:14;;;;;;;3.75;1.60;;;;;;;14.80;95.45;97993.88;4174012;83;21552;-81
2022/09/17 09:27:28;;;;;;;12.43;2.67;;;;;;;14.83;93.01;97993.65;4166318;83;21023;-82
2022/09/17 09:33:38;;;;;;;2.77;1.70;;;;;;;14.60;92.53;98015.76;4167240;84;20983;-82
2022/09/17 09:39:43;;;;;;;6.25;1.72;;;;;;;15.09;93.50;98018.25;4223608;84;21018;-82
2022/09/17 09:46:23;;;;;;;3.22;1.90;;;;;;;15.18;91.49;98034.97;4173209;83;21030;-84
2022/09/17 09:53:11;;;;;;;4.25;1.70;;;;;;;15.28;92.20;98031.21;4172810;83;21081;-83
2022/09/17 09:59:13;;;;;;;3.83;1.80;;;;;;;15.75;90.12;98028.15;4178052;83;21070;-83
2022/09/17 10:05:15;;;;;;;2.70;1.32;;;;;;;16.03;88.77;98032.95;4166515;83;21509;-82
2022/09/17 10:11:24;;;;;;;5.35;1.67;;;;;;;16.58;88.77;98040.37;4165339;83;21000;-84
2022/09/17 10:17:28;;;;;;;2.95;1.60;;;;;;;16.71;87.71;98048.70;4163205;84;21092;-83
2022/09/17 10:23:37;;;;;;;1.87;1.25;;;;;;;16.63;87.05;98048.09;4166337;83;20995;-83
2022/09/17 10:29:49;;;;;;;3.85;1.70;;;;;;;16.78;86.73;98044.33;4166056;83;21047;-83
2022/09/17 10:36:10;;;;;;;2.90;1.80;;;;;;;16.53;85.69;98048.40;4180488;83;21066;-82
2022/09/17 10:42:17;;;;;;;4.33;1.62;;;;;;;16.34;85.43;98048.69;4179694;83;21609;-82
2022/09/17 10:48:21;;;;;;;2.22;1.42;;;;;;;16.60;84.09;98039.30;4169685;83;21047;-83
2022/09/17 10:55:13;;;;;;;5.62;1.60;;;;;;;16.62;83.31;98048.53;4137465;84;21982;-83
2022/09/17 11:01:54;;;;;;;3.55;1.50;;;;;;;16.57;83.13;98038.04;4174594;83;21011;-83
2022/09/17 11:08:39;;;;;;;2.20;1.40;;;;;;;16.55;82.28;98033.55;4203054;83;20969;-83
2022/09/17 11:15:04;;;;;;;2.75;1.27;;;;;;;16.55;81.69;98036.31;4195926;83;21028;-83
2022/09/17 11:21:48;;;;;;;3.25;1.60;;;;;;;16.53;80.92;98050.56;4205674;84;21623;-82
2022/09/17 11:28:06;;;;;;;1.87;1.20;;;;;;;16.45;80.92;98045.66;4201956;83;21028;-83
2022/09/17 11:34:43;;;;;;;3.27;1.10;;;;;;;16.34;80.25;98044.54;4182777;83;21012;-82
2022/09/17 11:41:06;;;;;;;2.50;1.00;;;;;;;16.22;79.48;98045.86;4231889;83;33908;-83
2022/09/17 11:47:19;;;;;;;3.70;1.35;;;;;;;16.03;78.27;98041.23;4201385;83;21044;-83
2022/09/17 11:53:33;;;;;;;4.25;1.52;;;;;;;15.79;77.89;98059.17;4244812;83;21100;-83
2022/09/17 11:59:55;;;;;;;4.55;1.90;;;;;;;15.65;78.00;98059.71;4121086;85;21029;-82
2022/09/17 12:06:02;;;;;;;4.22;1.87;;;;;;;15.36;77.85;98040.09;4254265;82;21059;-83
2022/09/17 12:12:17;;;;;;;5.22;2.12;;;;;;;15.02;77.92;98036.90;4251419;82;22077;-82
2022/09/17 12:18:45;;;;;;;3.58;1.80;;;;;;;14.92;78.95;98042.84;4227293;81;21322;-84
2022/09/17 12:24:50;;;;;;;3.50;2.00;;;;;;;14.84;78.67;98029.04;4244444;81;21055;-81
2022/09/17 12:30:58;;;;;;;3.55;2.17;;;;;;;14.68;78.56;98027.59;4248316;81;21052;-81
2022/09/17 12:37:29;;;;;;;3.70;2.02;;;;;;;14.59;78.80;98017.76;4234074;81;21111;-84
2022/09/17 12:44:18;;;;;;;4.55;2.10;;;;;;;14.55;79.59;98005.27;4246598;83;21059;-81
2022/09/17 12:50:53;;;;;;;3.83;2.12;;;;;;;14.58;79.31;97987.89;4241758;83;21020;-82
2022/09/17 13:02:06;;;;;;;6.12;2.08;;;;;;;14.54;78.51;97981.06;4665702;74;22498;-82
2022/09/17 13:09:00;;;;;;;2.87;2.08;;;;;;;14.35;78.62;97972.21;4593372;75;21038;-82
2022/09/17 13:15:16;;;;;;;5.28;2.25;;;;;;;14.24;79.27;97973.02;4586741;75;20938;-83
2022/09/17 13:21:26;;;;;;;5.03;2.43;;;;;;;14.16;79.76;97970.20;4604125;75;21043;-82
2022/09/17 13:27:28;;;;;;;5.03;2.33;;;;;;;14.18;80.35;97971.94;4404598;78;21041;-82
2022/09/17 13:33:59;;;;;;;5.40;2.60;;;;;;;14.13;80.25;97980.67;4475885;78;21021;-82
2022/09/17 13:40:24;;;;;;;3.35;2.40;;;;;;;14.22;80.85;97985.63;4484713;77;21876;-83
2022/09/17 13:46:35;;;;;;;6.60;3.00;;;;;;;14.26;81.27;97988.52;4482531;77;20945;-83
2022/09/17 13:52:47;;;;;;;4.08;2.15;;;;;;;14.23;80.63;97975.58;4476435;77;21019;-83
2022/09/17 13:58:48;;;;;;;4.12;2.45;;;;;;;14.14;80.40;97972.00;4526497;77;21435;-81
2022/09/17 14:04:53;;;;;;;4.62;2.60;;;;;;;14.10;80.50;97970.52;4446971;78;21964;-83
2022/09/17 14:10:59;;;;;;;4.10;2.27;;;;;;;14.05;80.37;97968.25;4405311;79;20973;-82
2022/09/17 14:17:00;;;;;;;3.67;2.20;;;;;;;14.07;80.96;97942.47;4473315;80;21909;-82
2022/09/17 14:23:02;;;;;;;4.90;2.83;;;;;;;14.11;81.57;97939.82;4472955;78;20964;-82
2022/09/17 14:29:26;;;;;;;7.30;3.17;;;;;;;14.00;81.36;97948.88;4477532;78;21025;-82
2022/09/17 14:35:47;;;;;;;5.22;2.77;;;;;;;13.88;81.91;97952.84;4461792;78;21366;-83
2022/09/17 14:41:51;;;;;;;4.95;3.42;;;;;;;13.84;82.68;97948.78;4515398;78;21004;-82
2022/09/17 14:48:33;;;;;;;5.72;3.62;;;;;;;13.74;82.55;97948.39;4507395;78;20989;-81
2022/09/17 14:54:42;;;;;;;5.22;4.30;;;;;;;13.67;83.12;97956.75;4470666;78;20963;-81
2022/09/17 15:00:50;;;;;;;6.87;4.10;;;;;;;13.54;83.23;97962.70;4470929;78;21024;-81
2022/09/17 15:07:11;;;;;;;6.65;4.03;;;;;;;13.46;83.34;97965.98;4485644;77;20959;-82
2022/09/17 15:13:17;;;;;;;8.50;4.12;;;;;;;13.42;84.00;97941.28;4471313;77;20974;-82
2022/09/17 15:19:30;;;;;;;6.08;4.05;;;;;;;13.38;84.31;97926.84;4494396;77;21056;-82
2022/09/17 15:25:33;;;;;;;6.10;3.40;;;;;;;13.36;84.39;97920.97;4478425;78;20984;-83
2022/09/17 15:31:36;;;;;;;6.67;3.80;;;;;;;13.31;84.66;97926.19;4478018;78;21014;-82
2022/09/17 15:38:23;;;;;;;5.85;3.42;;;;;;;13.23;84.46;97935.73;4472885;78;21002;-82
2022/09/17 15:44:26;;;;;;;7.07;3.73;;;;;;;13.16;84.61;97928.37;4292017;81;21526;-82
2022/09/17 15:50:33;;;;;;;8.38;4.08;;;;;;;13.18;85.29;97939.74;4400715;79;20998;-83
2022/09/17 15:56:39;;;;;;;6.20;4.22;;;;;;;13.19;85.19;97941.88;4563117;77;21047;-83
2022/09/17 16:02:40;;;;;;;9.20;4.57;;;;;;;13.11;85.65;97949.45;4452067;78;21018;-82
2022/09/17 16:08:46;;;;;;;15.20;8.20;;;;;;;13.06;86.36;97951.91;4496862;77;20978;-83
2022/09/17 16:14:57;;;;;;;17.90;8.25;;;;;;;13.02;86.53;97951.17;4407917;79;21048;-82
2022/09/17 16:20:58;;;;;;;14.78;8.35;;;;;;;12.97;87.02;97950.23;4505725;77;21045;-82
2022/09/17 16:27:00;;;;;;;12.45;7.58;;;;;;;12.89;87.37;97953.69;4405818;79;21060;-82
2022/09/17 16:33:02;;;;;;;10.18;6.60;;;;;;;12.81;87.67;97956.34;4496774;77;21057;-82
2022/09/17 16:39:04;;;;;;;8.33;5.70;;;;;;;12.75;87.95;97961.37;4507770;77;21462;-82
2022/09/17 16:45:07;;;;;;;15.20;5.33;;;;;;;12.68;88.14;97958.12;4491936;77;20993;-82
2022/09/17 16:51:11;;;;;;;9.55;4.83;;;;;;;12.62;88.31;97952.30;4513370;77;21009;-82
2022/09/17 16:57:12;;;;;;;6.00;4.40;;;;;;;12.55;88.58;97936.52;4504704;76;21830;-82
2022/09/17 17:03:14;;;;;;;8.70;4.72;;;;;;;12.51;88.77;97946.78;4491004;77;21172;-82
2022/09/17 17:09:16;;;;;;;6.92;4.37;;;;;;;12.40;88.78;97941.41;4502462;76;20985;-82
2022/09/17 17:15:18;;;;;;;7.85;4.53;;;;;;;12.34;89.17;97932.08;4480200;77;21529;-82
2022/09/17 17:21:20;;;;;;;5.40;3.67;;;;;;;12.26;88.99;97923.75;4483724;78;21030;-82
2022/09/17 17:27:21;;;;;;;7.33;4.10;;;;;;;12.16;89.18;97931.55;4483959;78;21872;-82
2022/09/17 17:33:23;;;;;;;6.30;4.58;;;;;;;12.13;89.52;97929.62;4477551;78;21032;-82
2022/09/17 17:39:24;;;;;;;7.37;4.70;;;;;;;12.06;89.72;97928.91;4459815;77;21007;-82
2022/09/17 17:45:25;;;;;;;10.13;6.05;;;;;;;12.00;89.85;97920.94;4470654;77;21044;-82
2022/09/17 17:51:27;;;;;;;14.28;7.28;;;;;;;12.01;90.25;97913.67;4482651;77;20978;-82
2022/09/17 17:57:28;;;;;;;13.83;6.90;;;;;;;11.98;90.37;97913.13;4473069;78;21004;-82
2022/09/17 18:03:30;;;;;;;12.40;6.92;;;;;;;11.96;90.60;97920.22;4466960;78;20985;-81
2022/09/17 18:09:32;;;;;;;13.32;6.70;;;;;;;11.91;90.80;97922.03;4456462;77;21034;-82
2022/09/17 18:15:33;;;;;;;13.55;8.00;;;;;;;11.87;91.15;97917.20;4502803;77;21697;-82
2022/09/17 18:21:34;;;;;;;11.85;7.47;;;;;;;11.85;91.49;97912.13;4475498;77;21441;-82
2022/09/17 18:27:36;;;;;;;11.90;7.40;;;;;;;11.84;91.64;97920.14;4485735;77;20989;-82
2022/09/17 18:33:37;;;;;;;16.15;8.18;;;;;;;11.80;91.82;97922.16;4486180;77;20962;-80
2022/09/17 18:39:39;;;;;;;10.65;7.67;;;;;;;11.81;92.19;97919.59;4487136;78;21030;-82
2022/09/17 18:45:40;;;;;;;10.30;7.87;;;;;;;11.79;92.50;97934.91;4479089;78;21537;-82
2022/09/17 18:51:41;;;;;;;13.13;8.65;;;;;;;11.77;92.51;97950.40;4479855;78;22012;-82
2022/09/17 18:57:43;;;;;;;14.33;8.95;;;;;;;11.76;92.85;97952.17;4482749;78;20986;-82
2022/09/17 19:03:44;;;;;;;15.53;10.60;;;;;;;11.74;93.14;97941.62;4486163;78;20979;-82
2022/09/17 19:09:45;;;;;;;19.67;12.00;;;;;;;11.72;93.32;97941.82;4485771;78;21956;-82
2022/09/17 19:15:47;;;;;;;17.75;11.70;;;;;;;11.71;93.69;97941.06;4491802;78;21059;-82
2022/09/17 19:21:49;;;;;;;20.15;13.38;;;;;;;11.70;93.88;97928.52;4474187;78;21046;-82
2022/09/17 19:27:54;;;;;;;23.02;13.95;;;;;;;11.68;94.24;97922.66;4483094;78;21034;-82
2022/09/17 19:33:55;;;;;;;26.15;14.65;;;;;;;11.66;94.52;97920.94;4497767;77;20993;-82
2022/09/17 19:39:57;;;;;;;24.25;12.93;;;;;;;11.67;94.78;97923.86;4483909;78;21832;-82
2022/09/17 19:46:07;;;;;;;21.27;13.50;;;;;;;11.68;95.09;97936.37;4477407;77;20948;-82
2022/09/17 19:52:11;;;;;;;20.35;14.28;;;;;;;11.67;95.24;97925.81;4472752;77;21020;-82
2022/09/17 19:58:13;;;;;;;22.60;14.50;;;;;;;11.70;95.52;97915.42;4474464;77;21015;-82
2022/09/17 20:04:14;;;;;;;23.50;14.13;;;;;;;11.68;95.58;97921.29;4461629;77;21004;-82
2022/09/17 20:10:16;;;;;;;19.17;13.20;;;;;;;11.64;96.14;97921.14;4486576;77;21517;-82
2022/09/17 20:16:20;;;;;;;20.40;13.32;;;;;;;11.65;96.37;97935.05;4473751;77;21875;-82
2022/09/17 20:22:22;;;;;;;18.15;11.33;;;;;;;11.66;96.43;97929.75;4469711;77;20980;-82
2022/09/17 20:28:23;;;;;;;16.37;10.70;;;;;;;11.65;96.68;97922.72;4502776;77;20988;-82
2022/09/17 20:34:24;;;;;;;13.48;9.38;;;;;;;11.62;96.65;97913.91;4480607;77;21010;-82
2022/09/17 20:40:26;;;;;;;15.00;9.90;;;;;;;11.60;96.81;97906.09;4479503;77;21050;-82
2022/09/17 20:46:27;;;;;;;12.50;8.50;;;;;;;11.59;96.88;97908.63;4493899;77;21591;-82
2022/09/17 20:52:28;;;;;;;14.18;7.72;;;;;;;11.54;96.91;97906.94;4496723;77;21007;-82
2022/09/17 20:58:33;;;;;;;10.90;7.78;;;;;;;11.51;96.91;97905.77;4487688;78;21034;-82
2022/09/17 21:04:34;;;;;;;10.65;7.62;;;;;;;11.48;97.19;97903.84;4482907;78;21061;-82
2022/09/17 21:10:42;;;;;;;13.03;8.33;;;;;;;11.47;97.18;97907.78;4486393;78;21006;-82
2022/09/17 21:16:44;;;;;;;15.93;8.73;;;;;;;11.42;97.42;97895.89;4496854;78;22058;-82
2022/09/17 21:22:46;;;;;;;13.28;8.30;;;;;;;11.41;97.59;97895.71;4482615;78;20989;-82
2022/09/17 21:28:50;;;;;;;15.78;8.18;;;;;;;11.39;97.73;97890.44;4489684;78;21039;-82
2022/09/17 21:34:52;;;;;;;14.55;7.67;;;;;;;11.38;97.98;97890.26;4486403;78;20990;-82
2022/09/17 21:40:59;;;;;;;11.03;7.25;;;;;;;11.34;98.08;97886.17;4490207;77;20960;-82
2022/09/17 21:47:01;;;;;;;12.03;8.60;;;;;;;11.35;98.22;97892.44;4483238;77;21362;-82
2022/09/17 21:53:02;;;;;;;12.40;8.60;;;;;;;11.35;98.49;97893.23;4481391;77;20936;-82
2022/09/17 21:59:10;;;;;;;13.40;8.90;;;;;;;11.37;98.61;97896.32;4475262;77;21039;-82
2022/09/17 22:05:12;;;;;;;10.03;7.50;;;;;;;11.35;98.56;97892.44;4484818;77;20995;-82
2022/09/17 22:11:18;;;;;;;11.63;7.58;;;;;;;11.36;98.79;97902.20;4472022;77;20947;-82
2022/09/17 22:17:20;;;;;;;11.28;7.55;;;;;;;11.36;98.97;97906.31;4489087;77;20990;-81
2022/09/17 22:23:22;;;;;;;10.82;7.83;;;;;;;11.36;98.92;97910.43;4495465;77;20979;-81
2022/09/17 22:29:27;;;;;;;11.15;7.10;;;;;;;11.34;99.01;97910.08;4493279;78;20951;-82
2022/09/17 22:35:28;;;;;;;12.35;7.53;;;;;;;11.35;99.00;97902.82;4486083;78;21005;-82
2022/09/17 22:41:33;;;;;;;12.40;6.47;;;;;;;11.33;98.98;97907.92;4484962;78;21557;-82
2022/09/17 22:47:34;;;;;;;8.70;4.83;;;;;;;11.30;99.02;97910.69;4477113;77;21002;-82
2022/09/17 22:53:37;;;;;;;8.88;4.55;;;;;;;11.27;98.97;97910.91;4500499;77;21001;-82
2022/09/17 22:59:38;;;;;;;6.80;4.42;;;;;;;11.27;99.22;97908.75;4468369;77;21050;-82
2022/09/17 23:05:40;;;;;;;5.62;3.05;;;;;;;11.26;99.35;97909.95;4480260;77;21021;-84
2022/09/17 23:11:42;;;;;;;4.92;3.35;;;;;;;11.19;99.35;97908.05;4460472;77;21506;-83
2022/09/17 23:17:43;;;;;;;6.95;3.47;;;;;;;11.11;99.85;97903.81;4457776;76;20981;-84
2022/09/17 23:23:48;;;;;;;8.78;3.58;;;;;;;11.04;100.00;97902.48;4464973;77;21933;-83
2022/09/17 23:29:50;;;;;;;5.62;3.85;;;;;;;10.96;100.00;97903.13;4497635;77;21030;-83
2022/09/17 23:35:51;;;;;;;4.92;3.60;;;;;;;10.86;100.00;97905.96;4487789;78;20929;-83
2022/09/17 23:41:52;;;;;;;6.58;4.12;;;;;;;10.81;100.00;97900.33;4497860;78;20950;-82
